sensor_id;sensor_type;location;lat;lon;timestamp;P1;durP1;ratioP1;P2;durP2;ratioP2
67160;SDS011;54088;52.238;21.104;2022-12-07T00:01:21;21.02;;;13.93;;
67160;SDS011;54088;52.238;21.104;2022-12-07T00:03:52;18.73;;;14.05;;
67160;SDS011;54088;52.238;21.104;2022-12-07T00:06:22;20.85;;;15.90;;
67160;SDS011;54088;52.238;21.104;2022-12-07T00:08:47;21.08;;;15.30;;
67160;SDS011;54088;52.238;21.104;2022-12-07T00:11:22;22.13;;;14.70;;
67160;SDS011;54088;52.238;21.104;2022-12-07T00:13:52;21.27;;;15.63;;
67160;SDS011;54088;52.238;21.104;2022-12-07T00:18:46;22.40;;;16.02;;
67160;SDS011;54088;52.238;21.104;2022-12-07T00:21:14;25.40;;;17.23;;
67160;SDS011;54088;52.238;21.104;2022-12-07T00:23:41;26.95;;;17.67;;
67160;SDS011;54088;52.238;21.104;2022-12-07T00:26:12;24.52;;;16.27;;
67160;SDS011;54088;52.238;21.104;2022-12-07T00:28:59;25.10;;;17.48;;
67160;SDS011;54088;52.238;21.104;2022-12-07T00:31:31;27.92;;;18.15;;
67160;SDS011;54088;52.238;21.104;2022-12-07T00:34:00;27.15;;;19.20;;
67160;SDS011;54088;52.238;21.104;2022-12-07T00:36:25;26.45;;;17.52;;
67160;SDS011;54088;52.238;21.104;2022-12-07T00:38:51;28.52;;;17.85;;
67160;SDS011;54088;52.238;21.104;2022-12-07T00:41:19;27.13;;;18.50;;
67160;SDS011;54088;52.238;21.104;2022-12-07T00:43:46;29.08;;;19.42;;
67160;SDS011;54088;52.238;21.104;2022-12-07T00:46:14;29.45;;;18.35;;
67160;SDS011;54088;52.238;21.104;2022-12-07T00:48:40;28.20;;;19.35;;
67160;SDS011;54088;52.238;21.104;2022-12-07T00:51:07;28.02;;;19.23;;
67160;SDS011;54088;52.238;21.104;2022-12-07T00:53:34;28.35;;;19.38;;
67160;SDS011;54088;52.238;21.104;2022-12-07T00:56:07;27.48;;;17.05;;
67160;SDS011;54088;52.238;21.104;2022-12-07T00:58:34;26.05;;;17.35;;
67160;SDS011;54088;52.238;21.104;2022-12-07T01:01:00;27.13;;;18.85;;
67160;SDS011;54088;52.238;21.104;2022-12-07T01:03:28;28.58;;;18.85;;
67160;SDS011;54088;52.238;21.104;2022-12-07T01:05:55;30.65;;;18.95;;
67160;SDS011;54088;52.238;21.104;2022-12-07T01:08:21;31.60;;;20.02;;
67160;SDS011;54088;52.238;21.104;2022-12-07T01:10:48;31.30;;;21.02;;
67160;SDS011;54088;52.238;21.104;2022-12-07T01:13:14;32.33;;;20.42;;
67160;SDS011;54088;52.238;21.104;2022-12-07T01:15:44;29.85;;;19.55;;
67160;SDS011;54088;52.238;21.104;2022-12-07T01:18:10;32.35;;;20.58;;
67160;SDS011;54088;52.238;21.104;2022-12-07T01:20:36;34.33;;;22.90;;
67160;SDS011;54088;52.238;21.104;2022-12-07T01:23:02;33.05;;;22.48;;
67160;SDS011;54088;52.238;21.104;2022-12-07T01:25:28;35.58;;;23.42;;
67160;SDS011;54088;52.238;21.104;2022-12-07T01:27:54;39.97;;;25.60;;
67160;SDS011;54088;52.238;21.104;2022-12-07T01:30:20;34.75;;;23.05;;
67160;SDS011;54088;52.238;21.104;2022-12-07T01:32:45;38.35;;;24.67;;
67160;SDS011;54088;52.238;21.104;2022-12-07T01:35:11;32.03;;;22.05;;
67160;SDS011;54088;52.238;21.104;2022-12-07T01:37:37;37.50;;;23.90;;
67160;SDS011;54088;52.238;21.104;2022-12-07T01:40:05;36.58;;;24.25;;
67160;SDS011;54088;52.238;21.104;2022-12-07T01:42:32;34.67;;;22.83;;
67160;SDS011;54088;52.238;21.104;2022-12-07T01:48:01;38.20;;;24.13;;
67160;SDS011;54088;52.238;21.104;2022-12-07T01:50:27;34.10;;;21.98;;
67160;SDS011;54088;52.238;21.104;2022-12-07T01:52:56;32.92;;;22.33;;
67160;SDS011;54088;52.238;21.104;2022-12-07T01:55:26;37.20;;;24.42;;
67160;SDS011;54088;52.238;21.104;2022-12-07T01:57:52;35.35;;;23.58;;
67160;SDS011;54088;52.238;21.104;2022-12-07T02:00:19;34.35;;;23.40;;
67160;SDS011;54088;52.238;21.104;2022-12-07T02:02:51;113.28;;;44.30;;
67160;SDS011;54088;52.238;21.104;2022-12-07T02:05:40;58.17;;;30.08;;
67160;SDS011;54088;52.238;21.104;2022-12-07T02:08:06;49.92;;;26.35;;
67160;SDS011;54088;52.238;21.104;2022-12-07T02:10:33;40.92;;;24.73;;
67160;SDS011;54088;52.238;21.104;2022-12-07T02:13:06;34.50;;;21.75;;
67160;SDS011;54088;52.238;21.104;2022-12-07T02:32:05;20.45;;;14.00;;
67160;SDS011;54088;52.238;21.104;2022-12-07T02:34:42;21.05;;;13.10;;
67160;SDS011;54088;52.238;21.104;2022-12-07T02:40:12;21.02;;;14.55;;
67160;SDS011;54088;52.238;21.104;2022-12-07T02:42:45;20.42;;;13.80;;
67160;SDS011;54088;52.238;21.104;2022-12-07T02:45:17;18.70;;;12.68;;
67160;SDS011;54088;52.238;21.104;2022-12-07T02:47:46;17.70;;;11.65;;
67160;SDS011;54088;52.238;21.104;2022-12-07T02:50:17;17.45;;;11.88;;
67160;SDS011;54088;52.238;21.104;2022-12-07T02:52:46;17.90;;;11.80;;
67160;SDS011;54088;52.238;21.104;2022-12-07T02:55:12;16.35;;;10.85;;
67160;SDS011;54088;52.238;21.104;2022-12-07T02:57:48;16.02;;;11.30;;
67160;SDS011;54088;52.238;21.104;2022-12-07T03:00:30;15.07;;;10.45;;
67160;SDS011;54088;52.238;21.104;2022-12-07T03:03:04;14.43;;;9.95;;
67160;SDS011;54088;52.238;21.104;2022-12-07T03:08:30;13.98;;;9.50;;
67160;SDS011;54088;52.238;21.104;2022-12-07T03:11:13;13.65;;;9.05;;
67160;SDS011;54088;52.238;21.104;2022-12-07T03:16:16;14.40;;;9.38;;
67160;SDS011;54088;52.238;21.104;2022-12-07T03:18:54;12.75;;;8.40;;
67160;SDS011;54088;52.238;21.104;2022-12-07T03:21:22;13.15;;;9.13;;
67160;SDS011;54088;52.238;21.104;2022-12-07T03:26:19;12.82;;;8.40;;
67160;SDS011;54088;52.238;21.104;2022-12-07T03:28:49;13.48;;;8.60;;
67160;SDS011;54088;52.238;21.104;2022-12-07T03:31:21;13.30;;;8.65;;
67160;SDS011;54088;52.238;21.104;2022-12-07T03:36:21;14.65;;;9.50;;
67160;SDS011;54088;52.238;21.104;2022-12-07T03:41:36;14.60;;;10.00;;
67160;SDS011;54088;52.238;21.104;2022-12-07T03:44:03;13.43;;;9.10;;
67160;SDS011;54088;52.238;21.104;2022-12-07T03:46:38;13.77;;;8.32;;
67160;SDS011;54088;52.238;21.104;2022-12-07T03:49:18;13.07;;;9.20;;
67160;SDS011;54088;52.238;21.104;2022-12-07T03:54:34;12.82;;;8.55;;
67160;SDS011;54088;52.238;21.104;2022-12-07T03:57:11;13.68;;;8.73;;
67160;SDS011;54088;52.238;21.104;2022-12-07T03:59:38;13.13;;;8.80;;
67160;SDS011;54088;52.238;21.104;2022-12-07T04:02:05;15.18;;;8.85;;
67160;SDS011;54088;52.238;21.104;2022-12-07T04:04:32;13.27;;;7.55;;
67160;SDS011;54088;52.238;21.104;2022-12-07T04:06:59;12.52;;;8.30;;
67160;SDS011;54088;52.238;21.104;2022-12-07T04:09:25;12.48;;;8.25;;
67160;SDS011;54088;52.238;21.104;2022-12-07T04:11:51;12.10;;;7.15;;
67160;SDS011;54088;52.238;21.104;2022-12-07T04:14:16;13.38;;;7.65;;
67160;SDS011;54088;52.238;21.104;2022-12-07T04:16:46;12.65;;;7.97;;
67160;SDS011;54088;52.238;21.104;2022-12-07T04:19:13;11.77;;;7.22;;
67160;SDS011;54088;52.238;21.104;2022-12-07T04:21:39;9.55;;;6.05;;
67160;SDS011;54088;52.238;21.104;2022-12-07T04:24:04;10.23;;;6.78;;
67160;SDS011;54088;52.238;21.104;2022-12-07T04:26:30;10.20;;;6.10;;
67160;SDS011;54088;52.238;21.104;2022-12-07T04:28:56;10.85;;;7.18;;
67160;SDS011;54088;52.238;21.104;2022-12-07T04:31:21;9.63;;;6.60;;
67160;SDS011;54088;52.238;21.104;2022-12-07T04:33:47;9.52;;;5.72;;
67160;SDS011;54088;52.238;21.104;2022-12-07T04:36:13;10.40;;;6.55;;
67160;SDS011;54088;52.238;21.104;2022-12-07T04:38:38;11.63;;;6.97;;
67160;SDS011;54088;52.238;21.104;2022-12-07T04:41:05;11.30;;;6.82;;
67160;SDS011;54088;52.238;21.104;2022-12-07T04:43:31;12.05;;;7.40;;
67160;SDS011;54088;52.238;21.104;2022-12-07T04:45:58;11.77;;;7.22;;
67160;SDS011;54088;52.238;21.104;2022-12-07T04:48:23;11.00;;;6.43;;
67160;SDS011;54088;52.238;21.104;2022-12-07T04:50:49;11.20;;;6.93;;
67160;SDS011;54088;52.238;21.104;2022-12-07T04:53:15;10.48;;;6.97;;
67160;SDS011;54088;52.238;21.104;2022-12-07T04:55:40;10.68;;;7.28;;
67160;SDS011;54088;52.238;21.104;2022-12-07T04:58:06;11.27;;;7.45;;
67160;SDS011;54088;52.238;21.104;2022-12-07T05:00:32;12.77;;;8.18;;
67160;SDS011;54088;52.238;21.104;2022-12-07T05:02:58;12.82;;;8.55;;
67160;SDS011;54088;52.238;21.104;2022-12-07T05:05:23;13.38;;;8.20;;
67160;SDS011;54088;52.238;21.104;2022-12-07T05:07:49;11.15;;;7.40;;
67160;SDS011;54088;52.238;21.104;2022-12-07T05:10:15;12.10;;;8.80;;
67160;SDS011;54088;52.238;21.104;2022-12-07T05:12:41;11.57;;;7.93;;
67160;SDS011;54088;52.238;21.104;2022-12-07T05:15:07;10.95;;;7.88;;
67160;SDS011;54088;52.238;21.104;2022-12-07T05:17:33;11.63;;;7.45;;
67160;SDS011;54088;52.238;21.104;2022-12-07T05:19:59;11.10;;;7.53;;
67160;SDS011;54088;52.238;21.104;2022-12-07T05:22:24;9.73;;;6.65;;
67160;SDS011;54088;52.238;21.104;2022-12-07T05:24:53;11.30;;;7.88;;
67160;SDS011;54088;52.238;21.104;2022-12-07T05:27:19;11.50;;;7.60;;
67160;SDS011;54088;52.238;21.104;2022-12-07T05:29:45;11.32;;;7.03;;
67160;SDS011;54088;52.238;21.104;2022-12-07T05:32:11;11.82;;;7.63;;
67160;SDS011;54088;52.238;21.104;2022-12-07T05:34:36;11.55;;;7.40;;
67160;SDS011;54088;52.238;21.104;2022-12-07T05:37:02;10.75;;;7.43;;
67160;SDS011;54088;52.238;21.104;2022-12-07T05:39:28;10.77;;;7.40;;
67160;SDS011;54088;52.238;21.104;2022-12-07T05:41:53;11.63;;;7.35;;
67160;SDS011;54088;52.238;21.104;2022-12-07T05:44:40;12.63;;;7.15;;
67160;SDS011;54088;52.238;21.104;2022-12-07T05:47:08;10.52;;;7.13;;
67160;SDS011;54088;52.238;21.104;2022-12-07T05:49:34;10.65;;;7.30;;
67160;SDS011;54088;52.238;21.104;2022-12-07T05:52:00;10.57;;;6.85;;
67160;SDS011;54088;52.238;21.104;2022-12-07T05:54:26;9.30;;;6.43;;
67160;SDS011;54088;52.238;21.104;2022-12-07T05:56:51;10.30;;;6.45;;
67160;SDS011;54088;52.238;21.104;2022-12-07T05:59:17;10.15;;;7.07;;
67160;SDS011;54088;52.238;21.104;2022-12-07T06:01:53;9.75;;;6.45;;
67160;SDS011;54088;52.238;21.104;2022-12-07T06:04:24;11.07;;;6.63;;
67160;SDS011;54088;52.238;21.104;2022-12-07T06:06:51;10.85;;;7.03;;
67160;SDS011;54088;52.238;21.104;2022-12-07T06:09:17;10.27;;;6.45;;
67160;SDS011;54088;52.238;21.104;2022-12-07T06:11:43;11.13;;;7.00;;
67160;SDS011;54088;52.238;21.104;2022-12-07T06:14:28;11.10;;;7.05;;
67160;SDS011;54088;52.238;21.104;2022-12-07T06:16:54;11.50;;;6.72;;
67160;SDS011;54088;52.238;21.104;2022-12-07T06:19:19;10.25;;;7.47;;
67160;SDS011;54088;52.238;21.104;2022-12-07T06:21:45;10.88;;;7.05;;
67160;SDS011;54088;52.238;21.104;2022-12-07T06:24:11;11.98;;;7.18;;
67160;SDS011;54088;52.238;21.104;2022-12-07T06:26:37;10.88;;;7.07;;
67160;SDS011;54088;52.238;21.104;2022-12-07T06:29:04;10.75;;;7.20;;
67160;SDS011;54088;52.238;21.104;2022-12-07T06:31:29;13.10;;;8.23;;
67160;SDS011;54088;52.238;21.104;2022-12-07T06:34:02;10.35;;;6.43;;
67160;SDS011;54088;52.238;21.104;2022-12-07T06:36:30;12.43;;;7.55;;
67160;SDS011;54088;52.238;21.104;2022-12-07T06:38:56;10.43;;;6.88;;
67160;SDS011;54088;52.238;21.104;2022-12-07T06:41:22;11.63;;;7.10;;
67160;SDS011;54088;52.238;21.104;2022-12-07T06:43:48;11.95;;;7.10;;
67160;SDS011;54088;52.238;21.104;2022-12-07T06:46:14;10.77;;;7.10;;
67160;SDS011;54088;52.238;21.104;2022-12-07T06:48:40;12.68;;;7.80;;
67160;SDS011;54088;52.238;21.104;2022-12-07T06:51:07;12.23;;;7.68;;
67160;SDS011;54088;52.238;21.104;2022-12-07T06:53:33;13.85;;;7.30;;
67160;SDS011;54088;52.238;21.104;2022-12-07T06:55:59;10.93;;;7.22;;
67160;SDS011;54088;52.238;21.104;2022-12-07T06:58:25;12.63;;;7.97;;
67160;SDS011;54088;52.238;21.104;2022-12-07T07:00:50;12.80;;;8.07;;
67160;SDS011;54088;52.238;21.104;2022-12-07T07:03:16;11.05;;;6.80;;
67160;SDS011;54088;52.238;21.104;2022-12-07T07:05:42;12.50;;;7.72;;
67160;SDS011;54088;52.238;21.104;2022-12-07T07:08:08;12.10;;;7.85;;
67160;SDS011;54088;52.238;21.104;2022-12-07T07:10:34;11.77;;;7.25;;
67160;SDS011;54088;52.238;21.104;2022-12-07T07:13:01;11.77;;;7.85;;
67160;SDS011;54088;52.238;21.104;2022-12-07T07:15:27;12.40;;;8.35;;
67160;SDS011;54088;52.238;21.104;2022-12-07T07:17:53;11.98;;;7.25;;
67160;SDS011;54088;52.238;21.104;2022-12-07T07:20:19;12.73;;;7.40;;
67160;SDS011;54088;52.238;21.104;2022-12-07T07:22:44;11.63;;;7.75;;
67160;SDS011;54088;52.238;21.104;2022-12-07T07:25:10;12.77;;;8.02;;
67160;SDS011;54088;52.238;21.104;2022-12-07T07:27:35;11.68;;;7.75;;
67160;SDS011;54088;52.238;21.104;2022-12-07T07:30:01;12.02;;;7.13;;
67160;SDS011;54088;52.238;21.104;2022-12-07T07:32:27;12.55;;;8.23;;
67160;SDS011;54088;52.238;21.104;2022-12-07T07:34:53;12.23;;;7.63;;
67160;SDS011;54088;52.238;21.104;2022-12-07T07:37:18;12.60;;;8.10;;
67160;SDS011;54088;52.238;21.104;2022-12-07T07:39:44;12.07;;;8.10;;
67160;SDS011;54088;52.238;21.104;2022-12-07T07:42:10;12.15;;;8.05;;
67160;SDS011;54088;52.238;21.104;2022-12-07T07:44:35;10.43;;;7.30;;
67160;SDS011;54088;52.238;21.104;2022-12-07T07:47:01;12.48;;;7.45;;
67160;SDS011;54088;52.238;21.104;2022-12-07T07:49:27;11.50;;;7.68;;
67160;SDS011;54088;52.238;21.104;2022-12-07T07:51:53;11.95;;;7.90;;
67160;SDS011;54088;52.238;21.104;2022-12-07T07:54:18;14.23;;;8.13;;
67160;SDS011;54088;52.238;21.104;2022-12-07T07:56:44;13.73;;;8.55;;
67160;SDS011;54088;52.238;21.104;2022-12-07T07:59:09;11.77;;;7.40;;
67160;SDS011;54088;52.238;21.104;2022-12-07T08:01:35;13.13;;;8.38;;
67160;SDS011;54088;52.238;21.104;2022-12-07T08:04:01;9.82;;;6.80;;
67160;SDS011;54088;52.238;21.104;2022-12-07T08:06:26;13.30;;;7.35;;
67160;SDS011;54088;52.238;21.104;2022-12-07T08:08:52;10.60;;;7.25;;
67160;SDS011;54088;52.238;21.104;2022-12-07T08:11:17;11.32;;;7.00;;
67160;SDS011;54088;52.238;21.104;2022-12-07T08:13:45;11.10;;;7.85;;
67160;SDS011;54088;52.238;21.104;2022-12-07T08:16:12;11.90;;;7.22;;
67160;SDS011;54088;52.238;21.104;2022-12-07T08:18:39;12.25;;;7.15;;
67160;SDS011;54088;52.238;21.104;2022-12-07T08:21:06;10.35;;;7.07;;
67160;SDS011;54088;52.238;21.104;2022-12-07T08:23:34;12.65;;;8.10;;
67160;SDS011;54088;52.238;21.104;2022-12-07T08:26:03;11.07;;;7.80;;
67160;SDS011;54088;52.238;21.104;2022-12-07T08:28:30;13.80;;;8.00;;
67160;SDS011;54088;52.238;21.104;2022-12-07T08:31:00;14.25;;;9.27;;
67160;SDS011;54088;52.238;21.104;2022-12-07T08:33:27;14.43;;;8.73;;
67160;SDS011;54088;52.238;21.104;2022-12-07T08:35:52;14.98;;;9.25;;
67160;SDS011;54088;52.238;21.104;2022-12-07T08:38:18;15.10;;;9.32;;
67160;SDS011;54088;52.238;21.104;2022-12-07T08:40:44;15.13;;;9.73;;
67160;SDS011;54088;52.238;21.104;2022-12-07T08:43:09;18.40;;;11.13;;
67160;SDS011;54088;52.238;21.104;2022-12-07T08:45:35;19.02;;;11.35;;
67160;SDS011;54088;52.238;21.104;2022-12-07T08:48:05;17.58;;;10.57;;
67160;SDS011;54088;52.238;21.104;2022-12-07T08:50:32;18.25;;;11.25;;
67160;SDS011;54088;52.238;21.104;2022-12-07T08:52:59;19.90;;;11.52;;
67160;SDS011;54088;52.238;21.104;2022-12-07T08:55:25;19.58;;;11.40;;
67160;SDS011;54088;52.238;21.104;2022-12-07T08:57:52;23.05;;;12.93;;
67160;SDS011;54088;52.238;21.104;2022-12-07T09:00:18;21.77;;;12.20;;
67160;SDS011;54088;52.238;21.104;2022-12-07T09:02:44;20.80;;;12.55;;
67160;SDS011;54088;52.238;21.104;2022-12-07T09:05:11;21.25;;;13.88;;
67160;SDS011;54088;52.238;21.104;2022-12-07T09:07:39;24.92;;;14.73;;
67160;SDS011;54088;52.238;21.104;2022-12-07T09:10:06;20.20;;;13.10;;
67160;SDS011;54088;52.238;21.104;2022-12-07T09:12:32;19.52;;;12.18;;
67160;SDS011;54088;52.238;21.104;2022-12-07T09:14:58;23.13;;;13.23;;
67160;SDS011;54088;52.238;21.104;2022-12-07T09:17:25;21.63;;;12.27;;
67160;SDS011;54088;52.238;21.104;2022-12-07T09:19:51;20.27;;;12.93;;
67160;SDS011;54088;52.238;21.104;2022-12-07T09:22:17;20.00;;;12.93;;
67160;SDS011;54088;52.238;21.104;2022-12-07T09:24:43;23.25;;;12.48;;
67160;SDS011;54088;52.238;21.104;2022-12-07T09:27:10;20.08;;;12.55;;
67160;SDS011;54088;52.238;21.104;2022-12-07T09:29:36;18.65;;;11.98;;
67160;SDS011;54088;52.238;21.104;2022-12-07T09:32:02;18.08;;;11.85;;
67160;SDS011;54088;52.238;21.104;2022-12-07T09:34:30;21.13;;;12.48;;
67160;SDS011;54088;52.238;21.104;2022-12-07T09:36:57;19.80;;;11.88;;
67160;SDS011;54088;52.238;21.104;2022-12-07T09:39:22;19.08;;;11.40;;
67160;SDS011;54088;52.238;21.104;2022-12-07T09:41:48;19.48;;;12.05;;
67160;SDS011;54088;52.238;21.104;2022-12-07T09:44:17;21.58;;;12.55;;
67160;SDS011;54088;52.238;21.104;2022-12-07T09:46:46;18.92;;;11.65;;
67160;SDS011;54088;52.238;21.104;2022-12-07T09:49:19;20.25;;;13.52;;
67160;SDS011;54088;52.238;21.104;2022-12-07T09:51:47;19.60;;;11.75;;
67160;SDS011;54088;52.238;21.104;2022-12-07T09:54:24;19.25;;;11.73;;
67160;SDS011;54088;52.238;21.104;2022-12-07T09:56:49;20.02;;;11.82;;
67160;SDS011;54088;52.238;21.104;2022-12-07T09:59:16;21.13;;;12.00;;
67160;SDS011;54088;52.238;21.104;2022-12-07T10:01:43;20.65;;;11.98;;
67160;SDS011;54088;52.238;21.104;2022-12-07T10:04:13;18.92;;;11.77;;
67160;SDS011;54088;52.238;21.104;2022-12-07T10:06:46;22.92;;;12.02;;
67160;SDS011;54088;52.238;21.104;2022-12-07T10:09:13;20.35;;;13.02;;
67160;SDS011;54088;52.238;21.104;2022-12-07T10:14:25;20.20;;;12.18;;
67160;SDS011;54088;52.238;21.104;2022-12-07T10:16:53;20.15;;;11.23;;
67160;SDS011;54088;52.238;21.104;2022-12-07T10:19:52;21.33;;;11.48;;
67160;SDS011;54088;52.238;21.104;2022-12-07T10:22:15;19.20;;;11.50;;
67160;SDS011;54088;52.238;21.104;2022-12-07T10:24:42;18.52;;;11.38;;
67160;SDS011;54088;52.238;21.104;2022-12-07T10:27:29;15.33;;;8.87;;
67160;SDS011;54088;52.238;21.104;2022-12-07T10:29:56;22.65;;;12.45;;
67160;SDS011;54088;52.238;21.104;2022-12-07T10:32:28;22.70;;;11.93;;
67160;SDS011;54088;52.238;21.104;2022-12-07T10:37:50;20.23;;;10.57;;
67160;SDS011;54088;52.238;21.104;2022-12-07T10:40:31;18.80;;;11.93;;
67160;SDS011;54088;52.238;21.104;2022-12-07T10:43:06;20.02;;;11.13;;
67160;SDS011;54088;52.238;21.104;2022-12-07T10:46:05;18.35;;;9.80;;
67160;SDS011;54088;52.238;21.104;2022-12-07T10:52:09;19.02;;;10.85;;
67160;SDS011;54088;52.238;21.104;2022-12-07T10:57:18;16.90;;;10.02;;
67160;SDS011;54088;52.238;21.104;2022-12-07T11:25:23;17.42;;;10.98;;
67160;SDS011;54088;52.238;21.104;2022-12-07T11:37:00;15.40;;;10.85;;
67160;SDS011;54088;52.238;21.104;2022-12-07T11:39:35;18.60;;;12.60;;
67160;SDS011;54088;52.238;21.104;2022-12-07T11:42:13;17.83;;;11.70;;
67160;SDS011;54088;52.238;21.104;2022-12-07T12:03:34;16.25;;;11.98;;
67160;SDS011;54088;52.238;21.104;2022-12-07T12:06:03;15.48;;;10.93;;
67160;SDS011;54088;52.238;21.104;2022-12-07T12:16:49;15.00;;;10.20;;
67160;SDS011;54088;52.238;21.104;2022-12-07T12:20:03;18.85;;;11.75;;
67160;SDS011;54088;52.238;21.104;2022-12-07T12:23:12;14.10;;;10.13;;
67160;SDS011;54088;52.238;21.104;2022-12-07T12:25:21;16.17;;;9.93;;
67160;SDS011;54088;52.238;21.104;2022-12-07T12:27:50;15.52;;;11.02;;
67160;SDS011;54088;52.238;21.104;2022-12-07T12:30:26;18.88;;;12.35;;
67160;SDS011;54088;52.238;21.104;2022-12-07T12:33:04;16.70;;;11.10;;
67160;SDS011;54088;52.238;21.104;2022-12-07T12:35:42;15.73;;;11.38;;
67160;SDS011;54088;52.238;21.104;2022-12-07T12:40:52;17.08;;;12.00;;
67160;SDS011;54088;52.238;21.104;2022-12-07T12:51:57;16.52;;;11.68;;
67160;SDS011;54088;52.238;21.104;2022-12-07T12:54:26;16.48;;;11.65;;
67160;SDS011;54088;52.238;21.104;2022-12-07T13:13:40;14.32;;;10.13;;
67160;SDS011;54088;52.238;21.104;2022-12-07T13:15:46;14.00;;;10.10;;
67160;SDS011;54088;52.238;21.104;2022-12-07T13:23:29;13.50;;;9.07;;
67160;SDS011;54088;52.238;21.104;2022-12-07T13:28:44;14.32;;;9.70;;
67160;SDS011;54088;52.238;21.104;2022-12-07T13:33:48;12.80;;;9.63;;
67160;SDS011;54088;52.238;21.104;2022-12-07T13:36:23;14.45;;;8.93;;
67160;SDS011;54088;52.238;21.104;2022-12-07T13:39:00;13.95;;;9.25;;
67160;SDS011;54088;52.238;21.104;2022-12-07T13:41:43;13.27;;;9.35;;
67160;SDS011;54088;52.238;21.104;2022-12-07T13:44:14;14.30;;;9.02;;
67160;SDS011;54088;52.238;21.104;2022-12-07T13:49:22;13.80;;;9.15;;
67160;SDS011;54088;52.238;21.104;2022-12-07T13:51:50;15.88;;;10.00;;
67160;SDS011;54088;52.238;21.104;2022-12-07T13:54:17;13.25;;;10.18;;
67160;SDS011;54088;52.238;21.104;2022-12-07T13:56:43;15.85;;;10.38;;
67160;SDS011;54088;52.238;21.104;2022-12-07T13:59:19;14.32;;;10.30;;
67160;SDS011;54088;52.238;21.104;2022-12-07T14:01:50;14.68;;;10.50;;
67160;SDS011;54088;52.238;21.104;2022-12-07T14:04:30;14.90;;;10.50;;
67160;SDS011;54088;52.238;21.104;2022-12-07T14:07:01;14.80;;;10.27;;
67160;SDS011;54088;52.238;21.104;2022-12-07T14:10:22;13.68;;;10.27;;
67160;SDS011;54088;52.238;21.104;2022-12-07T14:13:29;16.67;;;11.38;;
67160;SDS011;54088;52.238;21.104;2022-12-07T14:16:05;14.40;;;9.82;;
67160;SDS011;54088;52.238;21.104;2022-12-07T14:18:53;13.00;;;9.85;;
67160;SDS011;54088;52.238;21.104;2022-12-07T14:21:20;14.05;;;10.63;;
67160;SDS011;54088;52.238;21.104;2022-12-07T14:26:34;15.23;;;10.50;;
67160;SDS011;54088;52.238;21.104;2022-12-07T14:29:22;15.68;;;9.80;;
67160;SDS011;54088;52.238;21.104;2022-12-07T14:31:51;13.57;;;9.95;;
67160;SDS011;54088;52.238;21.104;2022-12-07T14:34:19;16.23;;;11.60;;
67160;SDS011;54088;52.238;21.104;2022-12-07T14:36:46;17.00;;;11.32;;
67160;SDS011;54088;52.238;21.104;2022-12-07T14:39:11;16.33;;;11.05;;
67160;SDS011;54088;52.238;21.104;2022-12-07T14:41:37;16.50;;;12.15;;
67160;SDS011;54088;52.238;21.104;2022-12-07T14:44:21;15.52;;;11.30;;
67160;SDS011;54088;52.238;21.104;2022-12-07T14:46:49;16.27;;;10.70;;
67160;SDS011;54088;52.238;21.104;2022-12-07T14:49:15;16.92;;;12.10;;
67160;SDS011;54088;52.238;21.104;2022-12-07T14:51:41;18.15;;;11.10;;
67160;SDS011;54088;52.238;21.104;2022-12-07T14:54:18;14.60;;;11.43;;
67160;SDS011;54088;52.238;21.104;2022-12-07T14:56:44;21.05;;;12.38;;
67160;SDS011;54088;52.238;21.104;2022-12-07T14:59:14;17.67;;;12.80;;
67160;SDS011;54088;52.238;21.104;2022-12-07T15:01:40;17.33;;;12.93;;
67160;SDS011;54088;52.238;21.104;2022-12-07T15:04:06;19.33;;;13.43;;
67160;SDS011;54088;52.238;21.104;2022-12-07T15:06:31;17.13;;;11.68;;
67160;SDS011;54088;52.238;21.104;2022-12-07T15:08:57;18.65;;;12.30;;
67160;SDS011;54088;52.238;21.104;2022-12-07T15:11:22;17.67;;;12.95;;
67160;SDS011;54088;52.238;21.104;2022-12-07T15:13:48;17.85;;;13.13;;
67160;SDS011;54088;52.238;21.104;2022-12-07T15:16:33;19.05;;;13.43;;
67160;SDS011;54088;52.238;21.104;2022-12-07T15:18:59;20.67;;;14.10;;
67160;SDS011;54088;52.238;21.104;2022-12-07T15:21:24;21.42;;;15.25;;
67160;SDS011;54088;52.238;21.104;2022-12-07T15:23:50;18.40;;;13.05;;
67160;SDS011;54088;52.238;21.104;2022-12-07T15:26:16;18.00;;;12.85;;
67160;SDS011;54088;52.238;21.104;2022-12-07T15:28:42;20.90;;;13.52;;
67160;SDS011;54088;52.238;21.104;2022-12-07T15:31:11;20.02;;;13.68;;
67160;SDS011;54088;52.238;21.104;2022-12-07T15:33:41;18.98;;;13.93;;
67160;SDS011;54088;52.238;21.104;2022-12-07T15:36:07;20.92;;;13.05;;
67160;SDS011;54088;52.238;21.104;2022-12-07T15:38:33;23.13;;;15.85;;
67160;SDS011;54088;52.238;21.104;2022-12-07T15:40:59;21.52;;;15.57;;
67160;SDS011;54088;52.238;21.104;2022-12-07T15:43:25;19.55;;;14.20;;
67160;SDS011;54088;52.238;21.104;2022-12-07T15:46:09;18.92;;;13.73;;
67160;SDS011;54088;52.238;21.104;2022-12-07T15:48:35;19.95;;;13.90;;
67160;SDS011;54088;52.238;21.104;2022-12-07T15:51:07;18.00;;;13.02;;
67160;SDS011;54088;52.238;21.104;2022-12-07T15:53:33;19.83;;;12.82;;
67160;SDS011;54088;52.238;21.104;2022-12-07T15:56:00;20.60;;;12.85;;
67160;SDS011;54088;52.238;21.104;2022-12-07T15:58:26;19.92;;;12.25;;
67160;SDS011;54088;52.238;21.104;2022-12-07T16:00:52;19.92;;;13.40;;
67160;SDS011;54088;52.238;21.104;2022-12-07T16:03:17;20.60;;;13.07;;
67160;SDS011;54088;52.238;21.104;2022-12-07T16:05:52;21.40;;;14.10;;
67160;SDS011;54088;52.238;21.104;2022-12-07T16:08:18;19.15;;;13.32;;
67160;SDS011;54088;52.238;21.104;2022-12-07T16:10:44;18.45;;;12.80;;
67160;SDS011;54088;52.238;21.104;2022-12-07T16:13:10;18.52;;;14.00;;
67160;SDS011;54088;52.238;21.104;2022-12-07T16:15:40;21.35;;;13.60;;
67160;SDS011;54088;52.238;21.104;2022-12-07T16:18:06;19.17;;;13.17;;
67160;SDS011;54088;52.238;21.104;2022-12-07T16:20:31;19.40;;;13.13;;
67160;SDS011;54088;52.238;21.104;2022-12-07T16:22:57;19.60;;;13.55;;
67160;SDS011;54088;52.238;21.104;2022-12-07T16:25:23;19.95;;;13.20;;
67160;SDS011;54088;52.238;21.104;2022-12-07T16:27:49;20.52;;;13.27;;
67160;SDS011;54088;52.238;21.104;2022-12-07T16:30:16;18.20;;;12.38;;
67160;SDS011;54088;52.238;21.104;2022-12-07T16:32:42;20.13;;;13.57;;
67160;SDS011;54088;52.238;21.104;2022-12-07T16:35:08;21.90;;;14.15;;
67160;SDS011;54088;52.238;21.104;2022-12-07T16:37:34;23.05;;;13.77;;
67160;SDS011;54088;52.238;21.104;2022-12-07T16:39:59;19.48;;;12.98;;
67160;SDS011;54088;52.238;21.104;2022-12-07T16:42:25;19.83;;;13.05;;
67160;SDS011;54088;52.238;21.104;2022-12-07T16:44:51;20.55;;;14.55;;
67160;SDS011;54088;52.238;21.104;2022-12-07T16:47:17;20.40;;;14.15;;
67160;SDS011;54088;52.238;21.104;2022-12-07T16:49:42;19.73;;;13.70;;
67160;SDS011;54088;52.238;21.104;2022-12-07T16:52:08;22.48;;;14.85;;
67160;SDS011;54088;52.238;21.104;2022-12-07T16:54:34;19.00;;;14.07;;
67160;SDS011;54088;52.238;21.104;2022-12-07T16:57:01;19.83;;;13.73;;
67160;SDS011;54088;52.238;21.104;2022-12-07T16:59:26;21.55;;;14.85;;
67160;SDS011;54088;52.238;21.104;2022-12-07T17:01:52;21.15;;;14.50;;